createdAt,value
2023-02-14T00:01:40.336Z,100660.23
2023-02-14T00:04:48.323Z,100660.27
2023-02-14T00:07:54.600Z,100656.77
2023-02-14T00:11:00.961Z,100650.82
2023-02-14T00:14:25.549Z,100647.96
2023-02-14T00:17:31.808Z,100643.60
2023-02-14T00:20:38.036Z,100645.63
2023-02-14T00:23:44.246Z,100646.84
2023-02-14T00:26:51.246Z,100648.95
2023-02-14T00:30:02.215Z,100648.86
2023-02-14T00:33:08.476Z,100653.19
2023-02-14T00:36:15.209Z,100656.10
2023-02-14T00:39:22.447Z,100656.69
2023-02-14T00:42:28.713Z,100657.85
2023-02-14T00:45:35.108Z,100652.47
2023-02-14T00:48:41.428Z,100655.27
2023-02-14T00:51:47.714Z,100657.46
2023-02-14T00:54:52.332Z,100642.52
2023-02-14T00:57:58.499Z,100634.54
2023-02-14T01:01:04.897Z,100630.58
2023-02-14T01:04:11.192Z,100633.20
2023-02-14T01:07:17.438Z,100634.52
2023-02-14T01:10:24.049Z,100636.17
2023-02-14T01:13:30.317Z,100635.95
2023-02-14T01:16:37.164Z,100633.98
2023-02-14T01:19:43.447Z,100631.57
2023-02-14T01:22:49.694Z,100634.84
2023-02-14T01:25:54.183Z,100638.33
2023-02-14T01:29:00.410Z,100636.05
2023-02-14T01:32:06.918Z,100633.66
2023-02-14T01:35:13.898Z,100635.03
2023-02-14T01:38:20.065Z,100634.81
2023-02-14T01:41:27.798Z,100635.30
2023-02-14T01:45:00.110Z,100629.54
2023-02-14T01:48:06.593Z,100622.47
2023-02-14T01:51:11.265Z,100623.57
2023-02-14T01:54:18.453Z,100623.70
2023-02-14T01:57:30.261Z,100624.44
2023-02-14T02:00:54.540Z,100620.10
2023-02-14T02:04:04.620Z,100619.23
2023-02-14T02:07:16.116Z,100616.94
2023-02-14T02:10:22.588Z,100614.94
2023-02-14T02:13:28.755Z,100611.80
2023-02-14T02:16:48.344Z,100607.77
2023-02-14T02:20:48.510Z,100606.41
2023-02-14T02:24:31.519Z,100614.06
2023-02-14T02:28:04.626Z,100617.30
2023-02-14T02:31:32.750Z,100619.08
2023-02-14T02:35:17.242Z,100619.08
2023-02-14T02:38:41.907Z,100615.67
2023-02-14T02:41:57.100Z,100620.66
2023-02-14T02:45:13.263Z,100618.38
2023-02-14T02:48:24.256Z,100615.14
2023-02-14T02:51:57.619Z,100615.88
2023-02-14T02:55:09.168Z,100618.73
2023-02-14T02:58:15.518Z,100624.27
2023-02-14T03:01:22.192Z,100627.85
2023-02-14T03:04:47.189Z,100629.53
2023-02-14T03:07:53.737Z,100631.52
2023-02-14T03:11:01.156Z,100627.55
2023-02-14T03:14:21.110Z,100626.19
2023-02-14T03:17:36.797Z,100628.17
2023-02-14T03:20:51.156Z,100628.44
2023-02-14T03:24:05.650Z,100631.02
2023-02-14T03:27:21.823Z,100629.69
2023-02-14T03:30:31.474Z,100627.24
2023-02-14T03:33:48.042Z,100623.77
2023-02-14T03:37:01.917Z,100625.75
2023-02-14T03:40:15.443Z,100631.39
2023-02-14T03:43:25.970Z,100634.33
2023-02-14T03:46:36.813Z,100638.82
2023-02-14T03:49:48.265Z,100636.23
2023-02-14T03:52:55.721Z,100635.91
2023-02-14T03:56:09.907Z,100638.03
2023-02-14T03:59:18.579Z,100643.49
2023-02-14T04:02:31.706Z,100643.30
2023-02-14T04:05:38.617Z,100643.98
2023-02-14T04:08:44.865Z,100640.77
2023-02-14T04:11:51.564Z,100644.02
2023-02-14T04:14:57.868Z,100644.64
2023-02-14T04:18:19.584Z,100647.15
2023-02-14T04:21:25.882Z,100650.40
2023-02-14T04:24:30.597Z,100650.36
2023-02-14T04:27:36.820Z,100652.95
2023-02-14T04:30:43.176Z,100654.16
2023-02-14T04:33:48.337Z,100655.99
2023-02-14T04:36:54.843Z,100656.83
2023-02-14T04:40:01.085Z,100652.60
2023-02-14T04:43:08.243Z,100654.62
2023-02-14T04:46:14.776Z,100652.69
2023-02-14T04:49:21.207Z,100653.08
2023-02-14T04:52:25.765Z,100651.22
2023-02-14T04:55:32.251Z,100647.23
2023-02-14T04:58:38.594Z,100647.77
2023-02-14T05:01:43.458Z,100653.48
2023-02-14T05:04:49.982Z,100653.36
2023-02-14T05:07:56.299Z,100654.26
2023-02-14T05:11:01.129Z,100654.58
2023-02-14T05:14:10.103Z,100655.20
2023-02-14T05:17:16.405Z,100652.48
2023-02-14T05:20:21.015Z,100653.64
2023-02-14T05:23:27.236Z,100655.99
2023-02-14T05:26:33.973Z,100654.02
2023-02-14T05:29:40.246Z,100646.63
2023-02-14T05:32:44.722Z,100644.45
2023-02-14T05:35:51.109Z,100646.23
2023-02-14T05:38:55.745Z,100640.94
2023-02-14T05:42:02.050Z,100646.05
2023-02-14T05:45:07.305Z,100651.80
2023-02-14T05:48:13.483Z,100648.77
2023-02-14T05:51:19.780Z,100652.09
2023-02-14T05:54:24.292Z,100657.08
2023-02-14T05:57:30.697Z,100661.10
2023-02-14T06:00:38.413Z,100664.93
2023-02-14T06:03:46.240Z,100666.89
2023-02-14T06:06:50.824Z,100664.80
2023-02-14T06:09:57.109Z,100666.05
2023-02-14T06:13:01.678Z,100662.02
2023-02-14T06:16:08.905Z,100659.00
2023-02-14T06:19:15.018Z,100661.45
2023-02-14T06:22:21.578Z,100661.89
2023-02-14T06:25:28.211Z,100659.13
2023-02-14T06:28:34.485Z,100660.39
2023-02-14T06:31:40.837Z,100662.17
2023-02-14T06:34:47.191Z,100661.13
2023-02-14T06:37:53.585Z,100662.86
2023-02-14T06:41:06.329Z,100664.95
2023-02-14T06:44:12.791Z,100661.65
2023-02-14T06:47:17.293Z,100666.84
2023-02-14T06:50:23.595Z,100667.40
2023-02-14T06:53:28.407Z,100667.78
2023-02-14T06:56:34.642Z,100671.29
2023-02-14T06:59:40.905Z,100671.39
2023-02-14T07:02:47.483Z,100673.92
2023-02-14T07:05:54.757Z,100674.14
2023-02-14T07:09:01.076Z,100671.48
2023-02-14T07:12:05.604Z,100677.20
2023-02-14T07:15:14.978Z,100679.00
2023-02-14T07:18:21.243Z,100681.31
2023-02-14T07:21:27.461Z,100686.71
2023-02-14T07:24:33.731Z,100688.39
2023-02-14T07:27:40.732Z,100685.30
2023-02-14T07:30:46.952Z,100687.52
2023-02-14T07:33:51.463Z,100688.98
2023-02-14T07:36:57.809Z,100688.55
2023-02-14T07:40:02.954Z,100690.12
2023-02-14T07:43:09.617Z,100687.91
2023-02-14T07:46:17.551Z,100692.03
2023-02-14T07:49:24.152Z,100694.63
2023-02-14T07:52:30.471Z,100698.53
2023-02-14T07:55:34.963Z,100700.92
2023-02-14T07:58:41.210Z,100703.00
2023-02-14T08:01:47.759Z,100703.70
2023-02-14T08:04:54.046Z,100703.70
2023-02-14T08:07:58.534Z,100703.77
2023-02-14T08:11:05.154Z,100707.61
2023-02-14T08:14:11.526Z,100711.62
2023-02-14T08:17:16.018Z,100710.48
2023-02-14T08:20:22.406Z,100711.02
2023-02-14T08:23:26.788Z,100715.13
2023-02-14T08:26:33.796Z,100712.39
2023-02-14T08:29:40.121Z,100707.33
2023-02-14T08:32:44.650Z,100708.09
2023-02-14T08:35:52.251Z,100710.70
2023-02-14T08:38:58.708Z,100713.00
2023-02-14T08:42:05.348Z,100715.15
2023-02-14T08:45:12.738Z,100717.44
2023-02-14T08:48:19.030Z,100722.74
2023-02-14T08:51:24.074Z,100728.59
2023-02-14T08:54:30.317Z,100733.29
2023-02-14T08:57:35.135Z,100734.91
2023-02-14T09:00:41.619Z,100743.92
2023-02-14T09:03:48.039Z,100743.07
2023-02-14T09:06:52.635Z,100750.59
2023-02-14T09:09:58.956Z,100754.48
2023-02-14T09:13:03.731Z,100756.23
2023-02-14T09:16:11.999Z,100753.16
2023-02-14T09:19:18.425Z,100758.05
2023-02-14T09:22:22.955Z,100759.02
2023-02-14T09:25:29.214Z,100759.36
2023-02-14T09:28:35.408Z,100762.26
2023-02-14T09:31:40.210Z,100761.24
2023-02-14T09:35:04.270Z,100762.30
2023-02-14T09:38:11.293Z,100760.35
2023-02-14T09:41:50.681Z,100762.52
2023-02-14T09:45:00.794Z,100763.17
2023-02-14T09:48:13.874Z,100764.93
2023-02-14T09:51:23.440Z,100762.37
2023-02-14T09:54:31.641Z,100757.01
2023-02-14T09:57:46.998Z,100753.45
2023-02-14T10:01:00.874Z,100757.66
2023-02-14T10:04:22.620Z,100754.22
2023-02-14T10:07:34.979Z,100757.11
2023-02-14T10:10:44.188Z,100762.36
2023-02-14T10:13:54.737Z,100758.29
2023-02-14T10:17:07.016Z,100757.27
2023-02-14T10:20:22.141Z,100755.11
2023-02-14T10:23:35.696Z,100756.18
2023-02-14T10:26:42.980Z,100757.90
2023-02-14T10:29:49.320Z,100752.98
2023-02-14T10:32:58.974Z,100747.56
2023-02-14T10:36:12.264Z,100743.30
2023-02-14T10:39:47.373Z,100737.66
2023-02-14T10:43:00.005Z,100741.23
2023-02-14T10:46:17.786Z,100742.92
2023-02-14T10:49:41.719Z,100738.50
2023-02-14T10:52:59.199Z,100736.33
2023-02-14T10:56:09.997Z,100733.67
2023-02-14T10:59:23.497Z,100734.50
2023-02-14T11:02:41.624Z,100731.08
2023-02-14T11:05:49.770Z,100732.34
2023-02-14T11:08:57.363Z,100726.36
2023-02-14T11:12:03.929Z,100726.03
2023-02-14T11:15:21.583Z,100721.10
2023-02-14T11:18:33.022Z,100719.42
2023-02-14T11:21:42.555Z,100723.07
2023-02-14T11:24:48.830Z,100716.56
2023-02-14T11:27:56.292Z,100713.13
2023-02-14T11:31:03.565Z,100705.02
2023-02-14T11:34:26.263Z,100706.65
2023-02-14T11:37:37.581Z,100703.95
2023-02-14T11:40:43.877Z,100698.36
2023-02-14T11:43:49.423Z,100698.30
2023-02-14T11:46:57.253Z,100700.46
2023-02-14T11:50:06.662Z,100693.64
2023-02-14T11:53:14.399Z,100693.57
2023-02-14T11:56:22.370Z,100694.04
2023-02-14T11:59:37.556Z,100692.86
2023-02-14T12:02:45.822Z,100690.77
2023-02-14T12:05:57.379Z,100687.37
2023-02-14T12:09:25.363Z,100681.30
2023-02-14T12:12:31.681Z,100680.05
2023-02-14T12:15:40.740Z,100677.39
2023-02-14T12:18:57.881Z,100678.40
2023-02-14T12:22:07.362Z,100675.65
2023-02-14T12:25:18.016Z,100671.02
2023-02-14T12:28:30.931Z,100666.74
2023-02-14T12:31:37.102Z,100670.98
2023-02-14T12:34:41.720Z,100665.83
2023-02-14T12:38:04.629Z,100663.63
2023-02-14T12:41:26.023Z,100656.27
2023-02-14T12:44:45.079Z,100649.27
2023-02-14T12:48:01.126Z,100654.02
2023-02-14T12:51:13.154Z,100654.39
2023-02-14T12:54:34.926Z,100652.18
2023-02-14T12:57:51.059Z,100649.78
2023-02-14T13:01:04.267Z,100646.45
2023-02-14T13:04:33.299Z,100644.46
2023-02-14T13:08:06.093Z,100640.13
2023-02-14T13:11:25.386Z,100638.48
2023-02-14T13:14:51.980Z,100643.42
2023-02-14T13:18:01.538Z,100640.02
2023-02-14T13:21:11.785Z,100633.67
2023-02-14T13:24:22.999Z,100634.50
2023-02-14T13:27:32.934Z,100635.79
2023-02-14T13:30:42.280Z,100629.77
2023-02-14T13:33:53.291Z,100624.29
2023-02-14T13:37:02.092Z,100623.72
2023-02-14T13:40:19.536Z,100622.06
2023-02-14T13:43:50.277Z,100624.84
2023-02-14T13:46:56.603Z,100622.45
2023-02-14T13:50:01.966Z,100621.21
2023-02-14T13:53:12.467Z,100622.85
2023-02-14T13:56:44.552Z,100628.55
2023-02-14T14:00:40.069Z,100626.63
2023-02-14T14:04:00.967Z,100624.14
2023-02-14T14:07:30.158Z,100620.54
2023-02-14T14:10:47.536Z,100619.29
2023-02-14T14:14:02.789Z,100617.06
2023-02-14T14:17:28.728Z,100622.33
2023-02-14T14:20:45.764Z,100624.75
2023-02-14T14:24:08.741Z,100622.09
2023-02-14T14:27:21.906Z,100616.45
2023-02-14T14:30:32.202Z,100620.25
2023-02-14T14:33:38.905Z,100621.80
2023-02-14T14:36:45.182Z,100623.18
2023-02-14T14:39:53.449Z,100619.56
2023-02-14T14:43:06.850Z,100618.77
2023-02-14T14:46:15.884Z,100623.13
2023-02-14T14:49:22.982Z,100624.39
2023-02-14T14:52:35.267Z,100623.89
2023-02-14T14:55:46.491Z,100623.48
2023-02-14T14:58:53.013Z,100625.27
2023-02-14T15:01:59.245Z,100628.90
2023-02-14T15:05:24.485Z,100631.92
2023-02-14T15:08:33.642Z,100629.63
2023-02-14T15:11:58.353Z,100627.77
2023-02-14T15:15:06.314Z,100629.10
2023-02-14T15:18:15.854Z,100633.40
2023-02-14T15:21:22.178Z,100636.27
2023-02-14T15:24:27.268Z,100637.24
2023-02-14T15:27:34.917Z,100637.70
2023-02-14T15:30:44.385Z,100638.52
2023-02-14T15:33:51.062Z,100641.11
2023-02-14T15:37:03.625Z,100646.77
2023-02-14T15:40:18.048Z,100649.77
2023-02-14T15:43:32.110Z,100650.40
2023-02-14T15:46:41.641Z,100651.55
2023-02-14T15:49:48.051Z,100655.33
2023-02-14T15:52:53.708Z,100656.21
2023-02-14T15:56:08.057Z,100658.85
2023-02-14T15:59:20.056Z,100659.35
2023-02-14T16:02:36.113Z,100665.60
2023-02-14T16:05:47.192Z,100665.39
2023-02-14T16:08:58.110Z,100663.27
2023-02-14T16:12:23.552Z,100665.23
2023-02-14T16:15:32.102Z,100670.98
2023-02-14T16:18:40.758Z,100671.23
2023-02-14T16:21:58.476Z,100670.55
2023-02-14T16:25:04.892Z,100677.34
2023-02-14T16:28:11.205Z,100681.12
2023-02-14T16:31:17.178Z,100681.31
2023-02-14T16:34:22.176Z,100681.06
2023-02-14T16:37:30.679Z,100685.25
2023-02-14T16:40:37.498Z,100686.45
2023-02-14T16:43:43.735Z,100687.28
2023-02-14T16:46:50.817Z,100689.81
2023-02-14T16:49:57.167Z,100689.27
2023-02-14T16:53:02.246Z,100690.02
2023-02-14T16:56:08.736Z,100693.84
2023-02-14T16:59:14.998Z,100691.56
2023-02-14T17:02:19.756Z,100694.33
2023-02-14T17:05:28.329Z,100695.11
2023-02-14T17:08:35.362Z,100695.07
2023-02-14T17:11:46.595Z,100693.80
2023-02-14T17:14:55.742Z,100692.59
2023-02-14T17:18:07.702Z,100697.05
2023-02-14T17:21:14.038Z,100701.25
2023-02-14T17:24:18.730Z,100697.54
2023-02-14T17:27:24.918Z,100697.59
2023-02-14T17:30:31.139Z,100698.87
2023-02-14T17:33:36.212Z,100701.59
2023-02-14T17:36:42.423Z,100698.91
2023-02-14T17:39:48.648Z,100699.81
2023-02-14T17:42:53.111Z,100703.54
2023-02-14T17:45:59.170Z,100700.79
2023-02-14T17:49:05.286Z,100700.14
2023-02-14T17:52:11.495Z,100706.75
2023-02-14T17:55:17.922Z,100708.52
2023-02-14T17:58:24.129Z,100705.58
2023-02-14T18:01:33.124Z,100704.63
2023-02-14T18:04:39.592Z,100706.92
2023-02-14T18:07:46.200Z,100709.07
2023-02-14T18:10:52.555Z,100709.51
2023-02-14T18:13:58.107Z,100708.79
2023-02-14T18:17:04.375Z,100708.19
2023-02-14T18:20:09.930Z,100710.59
2023-02-14T18:23:16.194Z,100712.84
2023-02-14T18:26:20.684Z,100707.74
2023-02-14T18:29:26.964Z,100705.15
2023-02-14T18:32:31.458Z,100701.54
2023-02-14T18:35:37.784Z,100698.17
2023-02-14T18:38:42.793Z,100694.51
2023-02-14T18:41:49.449Z,100696.91
2023-02-14T18:44:55.660Z,100703.11
2023-02-14T18:48:02.769Z,100700.23
2023-02-14T18:51:10.802Z,100698.81
2023-02-14T18:54:17.533Z,100699.02
2023-02-14T18:57:25.014Z,100701.30
2023-02-14T19:00:33.453Z,100699.40
2023-02-14T19:03:40.278Z,100699.11
2023-02-14T19:06:46.486Z,100698.26
2023-02-14T19:09:52.741Z,100694.73
2023-02-14T19:12:59.952Z,100694.14
2023-02-14T19:16:12.840Z,100690.69
2023-02-14T19:19:19.772Z,100689.58
2023-02-14T19:22:26.077Z,100686.85
2023-02-14T19:25:32.708Z,100687.55
2023-02-14T19:28:39.399Z,100686.98
2023-02-14T19:31:48.414Z,100689.16
2023-02-14T19:34:54.857Z,100688.95
2023-02-14T19:38:03.641Z,100684.96
2023-02-14T19:41:14.979Z,100683.34
2023-02-14T19:44:23.147Z,100685.16
2023-02-14T19:47:45.985Z,100685.09
2023-02-14T19:50:54.116Z,100681.53
2023-02-14T19:54:02.190Z,100681.15
2023-02-14T19:57:08.474Z,100681.52
2023-02-14T20:00:17.634Z,100685.92
2023-02-14T20:03:23.832Z,100685.02
2023-02-14T20:06:30.538Z,100683.10
2023-02-14T20:09:37.736Z,100687.03
2023-02-14T20:12:44.217Z,100687.33
2023-02-14T20:15:50.846Z,100692.86
2023-02-14T20:18:57.789Z,100692.24
2023-02-14T20:22:04.217Z,100690.73
2023-02-14T20:25:11.326Z,100688.80
2023-02-14T20:28:17.607Z,100683.71
2023-02-14T20:31:22.507Z,100687.39
2023-02-14T20:34:29.567Z,100686.35
2023-02-14T20:37:36.366Z,100685.23
2023-02-14T20:40:44.664Z,100685.23
2023-02-14T20:43:50.934Z,100682.69
2023-02-14T20:46:58.161Z,100684.06
2023-02-14T20:50:04.477Z,100686.27
2023-02-14T20:53:08.914Z,100682.48
2023-02-14T20:56:16.481Z,100678.80
2023-02-14T20:59:27.139Z,100684.23
2023-02-14T21:02:33.504Z,100682.00
2023-02-14T21:05:40.405Z,100679.45
2023-02-14T21:08:48.116Z,100677.95
2023-02-14T21:11:54.970Z,100680.53
2023-02-14T21:15:01.229Z,100681.18
2023-02-14T21:18:07.952Z,100680.83
2023-02-14T21:21:19.994Z,100678.83
2023-02-14T21:24:26.258Z,100677.14
2023-02-14T21:27:32.728Z,100681.17
2023-02-14T21:30:39.022Z,100679.16
2023-02-14T21:33:43.546Z,100680.70
2023-02-14T21:36:49.782Z,100679.48
2023-02-14T21:39:56.584Z,100676.38
2023-02-14T21:43:02.663Z,100680.38
2023-02-14T21:46:10.878Z,100678.98
2023-02-14T21:49:34.721Z,100677.20
2023-02-14T21:52:40.962Z,100676.89
2023-02-14T21:55:47.967Z,100676.14
2023-02-14T21:58:56.489Z,100676.52
2023-02-14T22:02:02.776Z,100677.04
2023-02-14T22:05:08.053Z,100673.00
2023-02-14T22:08:14.322Z,100674.27
2023-02-14T22:11:20.580Z,100674.91
2023-02-14T22:14:25.532Z,100672.50
2023-02-14T22:17:33.561Z,100670.95
2023-02-14T22:20:40.145Z,100673.02
2023-02-14T22:23:47.037Z,100670.35
2023-02-14T22:26:53.325Z,100670.66
2023-02-14T22:29:57.822Z,100668.95
2023-02-14T22:33:04.109Z,100665.34
2023-02-14T22:36:11.361Z,100665.55
2023-02-14T22:39:18.810Z,100665.17
2023-02-14T22:42:24.994Z,100664.77
2023-02-14T22:45:31.192Z,100664.73
2023-02-14T22:48:38.598Z,100660.86
2023-02-14T22:51:45.322Z,100656.08
2023-02-14T22:54:52.956Z,100662.19
2023-02-14T22:57:59.353Z,100660.93
2023-02-14T23:01:04.639Z,100657.95
2023-02-14T23:04:11.091Z,100658.82
2023-02-14T23:07:17.805Z,100655.66
2023-02-14T23:10:24.108Z,100654.37
2023-02-14T23:13:45.983Z,100649.97
2023-02-14T23:17:21.471Z,100653.14
2023-02-14T23:20:45.964Z,100645.36
2023-02-14T23:23:52.196Z,100646.66
2023-02-14T23:26:58.806Z,100647.27
2023-02-14T23:30:05.711Z,100642.29
2023-02-14T23:33:12.078Z,100636.59
2023-02-14T23:36:16.622Z,100634.12
2023-02-14T23:39:23.302Z,100633.01
2023-02-14T23:42:29.642Z,100633.41
2023-02-14T23:45:36.841Z,100631.73
2023-02-14T23:48:43.108Z,100631.93
2023-02-14T23:51:51.248Z,100627.15
2023-02-14T23:54:57.685Z,100623.09
2023-02-14T23:58:02.521Z,100622.38
